Time;durP1;ratioP1;P1;durP2;ratioP2;P2;SDS_P1;SDS_P2;PMS_P1;PMS_P2;Temp;Humidity;BMP_temperature;BMP_pressure;BME280_temperature;BME280_humidity;BME280_pressure;Samples;Min_cycle;Max_cycle;Signal;HPM_P1;HPM_P2
2022/01/25 00:09:18;;;;;;;15.90;11.83;;;5.60;99.90;;;6.30;100.00;-19941.38;5027611;28;20301;-68
2022/01/25 00:25:59;;;;;;;15.60;10.63;;;5.60;99.90;;;6.33;100.00;-19942.22;5028399;28;20664;-69
2022/01/25 00:28:43;;;;;;;15.53;11.27;;;5.60;99.90;;;6.41;100.00;-19945.13;5027604;28;20221;-69
2022/01/25 00:31:13;;;;;;;14.70;11.30;;;5.50;99.90;;;6.57;100.00;-19950.59;5027274;28;20251;-68
2022/01/25 00:33:46;;;;;;;15.40;10.73;;;5.60;99.90;;;6.31;100.00;-19941.69;5027930;28;20198;-68
2022/01/25 00:36:18;;;;;;;15.97;11.00;;;5.50;99.90;;;6.27;100.00;-19940.34;5027671;28;20230;-70
2022/01/25 00:38:48;;;;;;;15.33;10.97;;;5.50;99.90;;;6.26;100.00;-19939.81;5027374;28;20256;-69
2022/01/25 00:41:16;;;;;;;15.83;10.80;;;5.40;99.90;;;6.18;100.00;-19937.25;5026886;28;20264;-67
2022/01/25 00:43:46;;;;;;;12.83;9.50;;;5.40;99.90;;;6.33;100.00;-19942.38;5027400;28;20649;-69
2022/01/25 00:46:16;;;;;;;20.07;11.00;;;5.40;99.90;;;6.30;100.00;-19941.38;5027719;28;20226;-69
2022/01/25 00:48:49;;;;;;;13.00;9.87;;;5.40;99.90;;;6.24;100.00;-19939.31;5028010;28;20234;-69
2022/01/25 00:54:13;;;;;;;13.50;10.30;;;5.40;99.90;;;6.22;100.00;-19938.78;5016475;28;20644;-68
2022/01/25 00:56:44;;;;;;;12.67;9.63;;;5.40;99.90;;;6.26;100.00;-19939.81;5013803;28;20309;-68
2022/01/25 00:59:15;;;;;;;13.37;9.70;;;5.40;99.90;;;6.20;100.00;-19937.94;5015257;28;20254;-70
2022/01/25 01:01:45;;;;;;;13.87;9.93;;;5.40;99.90;;;6.15;100.00;-19936.41;5013756;28;20639;-70
2022/01/25 01:04:15;;;;;;;13.97;10.20;;;5.30;99.90;;;6.18;100.00;-19937.25;5013785;28;20550;-68
2022/01/25 01:06:45;;;;;;;13.53;10.27;;;5.30;99.90;;;6.07;100.00;-19933.50;5014209;28;20218;-59
2022/01/25 01:09:16;;;;;;;12.53;9.53;;;5.30;99.90;;;6.06;100.00;-19933.16;5013139;28;20718;-59
2022/01/25 01:11:52;;;;;;;14.37;10.67;;;5.30;99.90;;;6.01;100.00;-19931.63;5013431;28;20724;-59
2022/01/25 01:14:30;;;;;;;14.80;10.37;;;5.30;99.90;;;6.10;100.00;-19934.69;5013248;28;20356;-60
2022/01/25 01:17:14;;;;;;;14.97;10.70;;;5.30;99.90;;;6.21;100.00;-19938.28;5013373;28;20717;-60
2022/01/25 01:30:57;;;;;;;13.17;9.90;;;5.30;99.90;;;6.06;100.00;-19933.16;5013529;28;20191;-59
2022/01/25 01:41:51;;;;;;;12.00;8.97;;;5.20;99.90;;;5.92;100.00;-19928.38;5031733;28;20672;-60
2022/01/25 01:44:22;;;;;;;12.63;9.33;;;5.20;99.90;;;5.91;100.00;-19928.03;5032363;28;20241;-60
2022/01/25 01:47:06;;;;;;;12.93;9.53;;;5.20;99.90;;;6.01;100.00;-19931.44;5032812;28;20225;-59
2022/01/25 01:49:42;;;;;;;12.90;8.93;;;5.20;99.90;;;5.95;100.00;-19929.41;5032948;28;20257;-60
2022/01/25 01:52:13;;;;;;;12.27;8.90;;;5.20;99.90;;;6.11;100.00;-19935.03;5032228;28;20213;-60
2022/01/25 01:54:42;;;;;;;11.33;8.57;;;5.20;99.90;;;6.24;100.00;-19939.16;5042495;28;20715;-60
2022/01/25 01:57:11;;;;;;;15.77;9.63;;;5.20;99.90;;;6.22;100.00;-19938.47;5051576;28;20252;-60
2022/01/25 01:59:40;;;;;;;13.00;9.37;;;5.20;99.90;;;6.07;100.00;-19933.50;5013768;28;20309;-60
2022/01/25 02:02:08;;;;;;;12.53;9.10;;;5.20;99.90;;;6.20;100.00;-19937.94;5012455;28;20281;-60
2022/01/25 02:04:37;;;;;;;13.23;8.60;;;5.10;99.90;;;6.27;100.00;-19940.34;5011312;28;20276;-60
2022/01/25 02:07:05;;;;;;;11.30;8.93;;;5.20;99.90;;;5.98;100.00;-19930.44;5012077;28;20293;-60
2022/01/25 02:09:35;;;;;;;12.37;9.10;;;5.10;99.90;;;5.96;100.00;-19929.75;5021719;28;20676;-60
2022/01/25 02:12:04;;;;;;;12.00;8.23;;;5.10;99.90;;;6.00;100.00;-19931.13;5031710;28;20297;-60
2022/01/25 02:14:35;;;;;;;12.57;9.00;;;5.10;99.90;;;5.91;100.00;-19928.22;5031909;28;20218;-60
2022/01/25 02:17:11;;;;;;;12.27;9.43;;;5.10;99.90;;;5.82;100.00;-19925.13;5032073;28;20313;-60
2022/01/25 02:22:31;;;;;;;10.63;9.20;;;5.10;99.90;;;5.95;100.00;-19929.41;5031018;28;20225;-60
2022/01/25 02:25:00;;;;;;;13.13;8.93;;;5.10;99.90;;;6.02;100.00;-19931.97;5031792;28;20221;-62
2022/01/25 02:27:29;;;;;;;12.70;8.57;;;5.10;99.90;;;6.01;100.00;-19931.44;5032900;28;20264;-60
2022/01/25 02:29:57;;;;;;;12.03;9.47;;;5.20;99.90;;;6.10;100.00;-19934.69;5031850;28;20757;-60
2022/01/25 02:32:25;;;;;;;10.53;8.67;;;5.20;99.90;;;6.04;100.00;-19932.47;5031868;28;20246;-61
2022/01/25 02:34:53;;;;;;;12.60;9.30;;;5.10;99.90;;;5.90;100.00;-19927.84;5031647;28;20226;-60
2022/01/25 02:37:21;;;;;;;11.40;8.57;;;5.10;99.90;;;5.84;100.00;-19925.81;5031426;28;20221;-60
2022/01/25 02:39:51;;;;;;;15.40;9.43;;;5.10;99.90;;;5.88;100.00;-19927.00;5031933;28;20202;-60
2022/01/25 02:42:19;;;;;;;11.90;9.30;;;5.10;99.90;;;5.86;100.00;-19926.50;5030640;28;20313;-60
2022/01/25 02:44:48;;;;;;;11.53;8.70;;;5.10;99.90;;;5.88;100.00;-19927.00;5031392;28;20221;-60
2022/01/25 02:50:03;;;;;;;9.57;7.87;;;5.10;99.90;;;5.93;100.00;-19928.88;5033791;28;20225;-61
2022/01/25 02:52:31;;;;;;;11.97;8.67;;;5.10;99.90;;;5.92;100.00;-19928.53;5045941;28;20308;-59
2022/01/25 02:55:01;;;;;;;11.47;8.97;;;5.10;99.90;;;5.86;100.00;-19926.31;5031289;28;20225;-68
2022/01/25 02:57:29;;;;;;;10.10;8.23;;;5.10;99.90;;;5.84;100.00;-19925.81;5029609;28;20281;-68
2022/01/25 03:00:04;;;;;;;9.83;8.17;;;5.10;99.90;;;5.78;100.00;-19923.59;5028327;28;20233;-61
2022/01/25 03:02:32;;;;;;;9.57;8.00;;;5.10;99.90;;;5.98;100.00;-19930.59;5017533;28;20317;-61
2022/01/25 03:05:00;;;;;;;9.30;8.07;;;5.10;99.90;;;6.09;100.00;-19934.19;5011328;28;20234;-61
2022/01/25 03:07:28;;;;;;;9.27;8.17;;;5.10;99.90;;;5.97;100.00;-19930.09;5011092;28;20230;-60
2022/01/25 03:09:58;;;;;;;8.93;8.03;;;5.10;99.90;;;5.93;100.00;-19928.72;5011751;28;20297;-60
2022/01/25 03:12:36;;;;;;;9.33;7.47;;;5.10;99.90;;;5.89;100.00;-19927.34;5011754;28;20230;-60
2022/01/25 03:15:24;;;;;;;9.90;8.10;;;5.10;99.90;;;5.87;100.00;-19926.66;5011024;28;20231;-60
2022/01/25 03:17:56;;;;;;;9.77;7.90;;;5.10;99.90;;;5.85;100.00;-19925.97;5010875;28;20744;-60
2022/01/25 03:20:36;;;;;;;12.23;7.70;;;5.00;99.90;;;5.90;100.00;-19927.69;5011314;28;20234;-59
2022/01/25 03:23:17;;;;;;;9.00;8.00;;;5.00;99.90;;;5.95;100.00;-19929.41;5010939;28;20318;-59
2022/01/25 03:25:47;;;;;;;9.50;7.73;;;5.00;99.90;;;5.92;100.00;-19928.53;5011085;28;20218;-61
2022/01/25 03:28:17;;;;;;;8.10;7.10;;;5.00;99.90;;;5.86;100.00;-19926.31;5011330;28;20385;-59
2022/01/25 03:30:46;;;;;;;9.80;7.50;;;5.10;99.90;;;5.86;100.00;-19926.31;5011837;28;20230;-60
2022/01/25 03:33:14;;;;;;;9.37;8.47;;;5.10;99.90;;;5.78;100.00;-19923.75;5011072;28;20226;-61
2022/01/25 03:35:45;;;;;;;8.07;7.03;;;5.10;99.90;;;5.87;100.00;-19926.66;5011206;28;20246;-61
2022/01/25 03:38:13;;;;;;;9.70;8.00;;;5.00;99.90;;;5.79;100.00;-19924.09;5010954;28;20308;-60
2022/01/25 03:40:41;;;;;;;9.97;8.20;;;5.00;99.90;;;5.78;100.00;-19923.59;5011308;28;20241;-60
2022/01/25 03:43:10;;;;;;;8.77;7.43;;;5.00;99.90;;;5.95;100.00;-19929.41;5011194;28;20219;-59
2022/01/25 03:45:42;;;;;;;11.00;7.60;;;5.00;99.90;;;5.88;100.00;-19927.19;5011412;28;20689;-60
2022/01/25 03:50:56;;;;;;;9.63;7.83;;;5.00;99.90;;;5.79;100.00;-19923.94;5030738;28;20245;-60
2022/01/25 03:53:24;;;;;;;9.40;7.83;;;5.00;99.90;;;5.77;100.00;-19923.41;5042887;28;20252;-62
2022/01/25 03:55:55;;;;;;;9.23;8.03;;;5.00;99.90;;;5.73;100.00;-19921.88;5042529;28;20233;-60
2022/01/25 03:58:23;;;;;;;8.90;7.83;;;5.00;99.90;;;6.07;100.00;-19933.50;5022905;28;20257;-59
2022/01/25 04:00:52;;;;;;;8.73;7.50;;;5.00;99.90;;;5.93;100.00;-19928.72;5011758;28;20207;-59
2022/01/25 04:03:28;;;;;;;9.73;7.97;;;5.10;99.90;;;5.89;100.00;-19927.34;5011097;28;20230;-59
2022/01/25 04:05:57;;;;;;;10.10;8.40;;;5.00;99.90;;;5.88;100.00;-19927.19;5027675;28;20279;-59
2022/01/25 04:08:26;;;;;;;9.67;8.20;;;5.00;99.90;;;5.90;100.00;-19927.84;5017880;28;20279;-60
2022/01/25 04:10:54;;;;;;;9.73;8.50;;;5.00;99.90;;;5.89;100.00;-19927.34;5010714;28;20226;-60
2022/01/25 04:13:22;;;;;;;10.83;8.07;;;5.00;99.90;;;5.80;100.00;-19924.28;5010960;28;20321;-60
2022/01/25 04:15:54;;;;;;;10.53;9.00;;;5.00;99.90;;;5.75;100.00;-19922.56;5011509;28;20232;-61
2022/01/25 04:18:29;;;;;;;10.13;8.67;;;5.00;99.90;;;5.77;100.00;-19923.25;5030975;28;20213;-60
2022/01/25 04:21:12;;;;;;;9.67;8.03;;;5.00;99.90;;;5.88;100.00;-19927.00;5030754;28;20235;-60
2022/01/25 04:26:26;;;;;;;14.10;9.30;;;5.00;99.90;;;5.81;100.00;-19924.78;5030466;28;20232;-59
2022/01/25 04:28:54;;;;;;;11.50;8.73;;;5.00;99.90;;;5.86;100.00;-19926.31;5032194;28;20229;-60
2022/01/25 04:31:23;;;;;;;11.47;8.90;;;4.90;99.90;;;5.72;100.00;-19921.53;5034138;28;20224;-60
2022/01/25 04:34:10;;;;;;;13.73;9.60;;;4.90;99.90;;;5.81;100.00;-19924.59;5034411;28;20861;-60
2022/01/25 04:48:48;;;;;;;12.07;9.30;;;4.90;99.90;;;5.81;100.00;-19924.78;5014511;28;20709;-60
2022/01/25 04:51:18;;;;;;;12.90;9.57;;;4.90;99.90;;;5.71;100.00;-19921.38;5017466;28;20285;-60
2022/01/25 04:53:53;;;;;;;11.80;9.27;;;4.90;99.90;;;5.67;100.00;-19920.00;5029224;28;20264;-60
2022/01/25 04:56:27;;;;;;;11.83;9.37;;;4.90;99.90;;;5.68;100.00;-19920.16;5022135;28;20255;-60
2022/01/25 04:59:02;;;;;;;12.10;9.77;;;4.90;99.90;;;5.71;100.00;-19921.19;5013961;28;20305;-60
2022/01/25 05:01:30;;;;;;;12.97;9.57;;;4.90;99.90;;;5.71;100.00;-19921.19;5015340;28;20230;-60
2022/01/25 05:04:04;;;;;;;14.00;10.10;;;4.90;99.90;;;5.67;100.00;-19920.00;5014623;28;20221;-60
2022/01/25 05:06:33;;;;;;;12.50;9.57;;;4.90;99.90;;;5.69;100.00;-19920.69;5014805;28;20208;-61
2022/01/25 05:09:10;;;;;;;11.97;9.20;;;4.90;99.90;;;5.78;100.00;-19923.75;5013260;28;20230;-61
2022/01/25 05:11:45;;;;;;;14.43;9.33;;;4.90;99.90;;;5.70;100.00;-19920.84;5013501;28;20246;-61
2022/01/25 05:14:31;;;;;;;11.00;8.70;;;4.80;99.90;;;5.69;100.00;-19920.50;5013578;28;20655;-60
2022/01/25 05:17:01;;;;;;;14.87;9.47;;;4.80;99.90;;;5.66;100.00;-19919.66;5013706;28;20717;-61
2022/01/25 05:22:27;;;;;;;11.50;8.40;;;4.80;99.90;;;5.54;100.00;-19915.38;5013090;28;20253;-61
2022/01/25 05:24:56;;;;;;;11.47;9.20;;;4.80;99.90;;;5.56;100.00;-19916.25;5013510;28;20276;-61
2022/01/25 05:27:29;;;;;;;10.50;8.90;;;4.80;99.90;;;5.58;100.00;-19916.91;5013650;28;20229;-61
2022/01/25 05:29:57;;;;;;;11.00;8.73;;;4.80;99.90;;;5.70;100.00;-19920.84;5012913;28;20229;-61
2022/01/25 05:32:27;;;;;;;10.07;8.30;;;4.80;99.90;;;5.68;100.00;-19920.16;5012791;28;20325;-60
2022/01/25 05:34:56;;;;;;;11.43;8.23;;;4.80;99.90;;;5.55;100.00;-19915.72;5012710;28;20226;-60
2022/01/25 05:37:24;;;;;;;11.73;8.57;;;4.80;99.90;;;5.47;100.00;-19912.97;5013090;28;20308;-60
2022/01/25 05:39:53;;;;;;;13.00;9.27;;;4.70;99.90;;;5.53;100.00;-19915.22;5013240;28;20249;-61
2022/01/25 05:45:18;;;;;;;12.27;8.50;;;4.70;99.90;;;5.61;100.00;-19917.94;5009804;28;20316;-60
2022/01/25 05:47:48;;;;;;;16.73;11.80;;;4.70;99.90;;;5.69;100.00;-19920.69;5017264;28;20226;-60
2022/01/25 05:50:17;;;;;;;12.90;9.10;;;4.70;99.90;;;5.52;100.00;-19914.69;5012647;28;20225;-60
2022/01/25 05:52:45;;;;;;;15.90;11.10;;;4.70;99.90;;;5.65;100.00;-19919.31;5012678;28;20774;-60
2022/01/25 05:55:13;;;;;;;12.63;9.23;;;4.70;99.90;;;5.62;100.00;-19918.13;5009986;28;20199;-59
2022/01/25 05:57:41;;;;;;;13.07;9.30;;;4.70;99.90;;;5.47;100.00;-19912.97;4997710;28;20544;-59
2022/01/25 06:00:11;;;;;;;11.60;9.23;;;4.70;99.90;;;5.40;100.00;-19910.75;5012870;28;20308;-60
2022/01/25 06:02:39;;;;;;;10.63;8.23;;;4.60;99.90;;;5.30;100.00;-19907.34;5012815;28;20225;-60
2022/01/25 06:05:08;;;;;;;11.37;8.33;;;4.60;99.90;;;5.41;100.00;-19911.09;5012432;28;20317;-61
2022/01/25 06:07:38;;;;;;;12.73;8.77;;;4.60;99.90;;;5.48;100.00;-19913.34;5012468;28;20260;-61
2022/01/25 06:10:08;;;;;;;11.27;8.67;;;4.60;99.90;;;5.41;100.00;-19910.94;5012484;28;20301;-61
2022/01/25 06:12:36;;;;;;;12.73;8.60;;;4.50;99.90;;;5.38;100.00;-19910.06;5012662;28;20286;-60
2022/01/25 06:15:05;;;;;;;10.67;8.40;;;4.50;99.90;;;5.23;100.00;-19904.94;5011888;28;20241;-61
2022/01/25 06:17:34;;;;;;;12.83;9.03;;;4.50;99.90;;;5.18;100.00;-19903.25;5012427;28;20303;-61
2022/01/25 06:20:02;;;;;;;12.13;8.77;;;4.50;99.90;;;5.31;100.00;-19907.53;5012293;28;20314;-61
2022/01/25 06:22:30;;;;;;;13.03;8.73;;;4.50;99.90;;;5.27;100.00;-19906.31;5012142;28;20874;-61
2022/01/25 06:25:00;;;;;;;11.67;8.93;;;4.50;99.90;;;5.27;100.00;-19906.31;5012284;28;20234;-61
2022/01/25 06:27:28;;;;;;;14.10;10.17;;;4.50;99.90;;;5.31;100.00;-19907.69;5012459;28;20238;-60
2022/01/25 06:29:56;;;;;;;13.00;9.07;;;4.50;99.90;;;5.31;100.00;-19907.53;5012034;28;20260;-60
2022/01/25 06:32:24;;;;;;;13.03;9.03;;;4.50;99.90;;;5.25;100.00;-19905.47;5012066;28;20256;-60
2022/01/25 06:34:52;;;;;;;12.33;9.47;;;4.40;99.90;;;5.49;100.00;-19913.66;5011697;28;20248;-61
2022/01/25 06:37:20;;;;;;;14.03;9.00;;;4.50;99.90;;;5.43;100.00;-19911.78;5011947;28;20235;-60
2022/01/25 06:39:49;;;;;;;15.63;9.60;;;4.50;99.90;;;5.21;100.00;-19904.28;5012281;28;20214;-60
2022/01/25 06:42:19;;;;;;;15.17;10.40;;;4.50;99.90;;;5.36;100.00;-19909.22;5011519;28;20231;-60
2022/01/25 06:44:47;;;;;;;16.07;10.47;;;4.40;99.90;;;5.19;100.00;-19903.59;5011511;28;20240;-60
2022/01/25 06:47:15;;;;;;;14.50;10.57;;;4.50;99.90;;;5.32;100.00;-19907.84;5011666;28;20236;-60
2022/01/25 06:49:43;;;;;;;14.70;9.67;;;4.50;99.90;;;5.19;100.00;-19903.59;5011247;28;20236;-60
2022/01/25 06:52:12;;;;;;;14.07;9.93;;;4.50;99.90;;;5.30;100.00;-19907.19;5011359;28;20221;-61
2022/01/25 06:54:40;;;;;;;16.23;10.83;;;4.50;99.90;;;5.30;100.00;-19907.19;5011474;28;20206;-59
2022/01/25 06:57:09;;;;;;;14.33;9.60;;;4.50;99.90;;;5.15;100.00;-19902.22;5011069;28;20321;-59
2022/01/25 06:59:39;;;;;;;15.90;10.40;;;4.50;99.90;;;5.26;100.00;-19905.97;5011342;28;20234;-61
2022/01/25 07:02:08;;;;;;;15.33;10.63;;;4.50;99.90;;;5.19;100.00;-19903.41;5011220;28;20255;-60
2022/01/25 07:04:37;;;;;;;15.07;9.70;;;4.50;99.90;;;5.34;100.00;-19908.72;5011328;28;20236;-61
2022/01/25 07:07:06;;;;;;;13.67;9.93;;;4.40;99.90;;;5.46;100.00;-19912.81;5011105;28;20245;-61
2022/01/25 07:09:35;;;;;;;14.40;10.23;;;4.50;99.90;;;5.32;100.00;-19908.03;5011525;28;20242;-61
2022/01/25 07:12:04;;;;;;;16.57;10.00;;;4.50;99.90;;;5.35;100.00;-19909.06;5011086;28;20348;-60
2022/01/25 07:14:33;;;;;;;14.63;10.13;;;4.50;99.90;;;5.23;100.00;-19904.94;5011169;28;20729;-60
2022/01/25 07:17:03;;;;;;;15.63;10.30;;;4.50;99.90;;;5.25;100.00;-19905.47;5011069;28;20257;-70
2022/01/25 07:19:31;;;;;;;14.77;10.30;;;4.50;99.90;;;5.27;100.00;-19906.31;5011183;28;20222;-69
2022/01/25 07:21:59;;;;;;;17.07;10.50;;;4.50;99.90;;;5.27;100.00;-19906.31;5010323;28;20261;-68
2022/01/25 07:24:27;;;;;;;16.10;10.53;;;4.50;99.90;;;5.39;100.00;-19910.25;5011535;28;20234;-69
2022/01/25 07:26:55;;;;;;;16.53;10.50;;;4.50;99.90;;;5.33;100.00;-19908.38;5009528;28;20282;-69
2022/01/25 07:29:27;;;;;;;16.33;10.60;;;4.50;99.90;;;5.30;100.00;-19907.19;5010789;28;20234;-70
2022/01/25 07:31:56;;;;;;;15.10;10.47;;;4.50;99.90;;;5.30;100.00;-19907.34;5010336;28;20234;-70
2022/01/25 07:34:29;;;;;;;14.83;10.60;;;4.50;99.90;;;5.50;100.00;-19914.00;5010829;28;20257;-71
2022/01/25 07:36:58;;;;;;;17.33;11.20;;;4.50;99.90;;;5.34;100.00;-19908.53;5010807;28;20191;-72
2022/01/25 07:39:27;;;;;;;19.17;11.53;;;4.50;99.90;;;5.40;100.00;-19910.59;5011257;28;20257;-71
2022/01/25 07:41:57;;;;;;;13.77;10.13;;;4.60;99.90;;;5.28;100.00;-19906.66;5010400;28;20645;-71
2022/01/25 07:44:35;;;;;;;17.57;11.63;;;4.50;99.90;;;5.24;100.00;-19905.31;5010668;28;20288;-72
2022/01/25 07:47:04;;;;;;;15.83;11.03;;;4.50;99.90;;;5.27;100.00;-19906.31;5010038;28;20234;-71
2022/01/25 07:49:38;;;;;;;16.30;9.93;;;4.50;99.90;;;5.51;100.00;-19914.53;5010703;28;20233;-72
2022/01/25 07:52:08;;;;;;;18.07;11.57;;;4.50;99.90;;;5.28;100.00;-19906.66;5010694;28;20244;-72
2022/01/25 07:54:37;;;;;;;15.77;10.43;;;4.50;99.90;;;5.17;100.00;-19902.72;5011671;28;20236;-72
2022/01/25 07:57:06;;;;;;;14.60;10.37;;;4.50;99.90;;;5.18;100.00;-19903.25;5010416;28;20229;-65
2022/01/25 07:59:34;;;;;;;16.03;10.50;;;4.40;99.90;;;5.24;100.00;-19905.13;5005166;28;20624;-61
2022/01/25 08:02:02;;;;;;;14.00;10.53;;;4.50;99.90;;;5.32;100.00;-19907.84;5007320;28;20245;-60
2022/01/25 08:04:46;;;;;;;15.67;10.47;;;4.40;99.90;;;5.19;100.00;-19903.41;5007731;28;20772;-62
2022/01/25 08:07:16;;;;;;;16.87;11.57;;;4.40;99.90;;;5.23;100.00;-19904.78;4987737;28;20238;-61
2022/01/25 08:09:58;;;;;;;16.00;10.70;;;4.40;99.90;;;5.34;100.00;-19908.53;5008265;28;20670;-67
2022/01/25 08:12:26;;;;;;;17.10;11.13;;;4.40;99.90;;;5.27;100.00;-19906.16;5010963;28;20236;-66
2022/01/25 08:14:58;;;;;;;15.90;10.83;;;4.50;99.90;;;5.33;100.00;-19908.38;5011172;28;20771;-65
2022/01/25 08:17:28;;;;;;;17.50;10.87;;;4.50;99.90;;;5.33;100.00;-19908.38;5010902;28;20294;-64
2022/01/25 08:20:01;;;;;;;18.17;11.40;;;4.50;99.90;;;5.25;100.00;-19905.47;5010482;28;20222;-67
2022/01/25 08:22:44;;;;;;;17.47;11.87;;;4.50;99.90;;;5.27;100.00;-19906.16;5010892;28;20223;-66
2022/01/25 08:25:29;;;;;;;17.60;11.03;;;4.50;99.90;;;5.40;100.00;-19910.75;5005381;28;20698;-63
2022/01/25 08:27:57;;;;;;;15.87;10.67;;;4.50;99.90;;;5.34;100.00;-19908.53;5010819;28;20575;-76
2022/01/25 08:30:32;;;;;;;17.40;11.00;;;4.50;99.90;;;5.56;100.00;-19916.25;5011974;28;20228;-75
2022/01/25 08:33:03;;;;;;;17.30;11.43;;;4.60;99.90;;;5.43;100.00;-19911.63;5010740;28;20225;-75
2022/01/25 08:35:33;;;;;;;15.27;10.57;;;4.60;99.90;;;5.42;100.00;-19911.44;5011569;28;20230;-76
2022/01/25 08:38:01;;;;;;;16.63;10.97;;;4.60;99.90;;;5.40;100.00;-19910.75;5011033;28;20242;-76
2022/01/25 08:40:38;;;;;;;18.70;11.40;;;4.60;99.90;;;5.38;100.00;-19910.06;5011694;28;20746;-76
2022/01/25 08:43:13;;;;;;;17.67;11.63;;;4.60;99.90;;;5.42;100.00;-19911.28;5011477;28;20228;-76
2022/01/25 08:45:48;;;;;;;16.97;10.87;;;4.60;99.90;;;5.34;100.00;-19908.72;5010432;28;20419;-76
2022/01/25 08:48:18;;;;;;;17.13;11.17;;;4.60;99.90;;;5.44;100.00;-19912.13;5010450;28;20272;-52
2022/01/25 08:50:48;;;;;;;17.97;11.63;;;4.60;99.90;;;5.33;100.00;-19908.19;5011118;28;20222;-55
2022/01/25 08:53:20;;;;;;;17.87;13.30;;;4.60;99.90;;;5.36;100.00;-19909.22;5030050;28;20229;-63
2022/01/25 08:55:49;;;;;;;18.37;13.10;;;4.60;99.90;;;5.48;100.00;-19913.34;5029743;28;20226;-65
2022/01/25 08:58:33;;;;;;;17.53;12.40;;;4.60;99.90;;;5.47;100.00;-19913.16;5029534;28;20225;-55
2022/01/25 09:01:02;;;;;;;20.70;13.23;;;4.60;99.90;;;5.38;100.00;-19909.91;5029751;28;20862;-59
2022/01/25 09:03:31;;;;;;;20.17;14.43;;;4.60;99.90;;;5.34;100.00;-19908.72;5029894;28;20242;-58
2022/01/25 09:06:00;;;;;;;25.10;14.90;;;4.60;99.90;;;5.43;100.00;-19911.78;5029653;28;20233;-61
2022/01/25 09:08:29;;;;;;;22.83;14.93;;;4.60;99.90;;;5.41;100.00;-19911.09;5029919;28;20293;-60
2022/01/25 09:11:00;;;;;;;24.23;15.50;;;4.60;99.90;;;5.47;100.00;-19912.97;5029353;28;20235;-62
2022/01/25 09:13:29;;;;;;;20.13;13.83;;;4.60;99.90;;;5.65;100.00;-19919.16;5029241;28;20308;-62
2022/01/25 09:15:58;;;;;;;21.17;14.20;;;4.70;99.90;;;5.65;100.00;-19919.16;5013791;28;20284;-61
2022/01/25 09:18:26;;;;;;;23.30;15.63;;;4.70;99.90;;;5.61;100.00;-19917.78;5009637;28;20284;-62
2022/01/25 09:20:55;;;;;;;20.10;14.70;;;4.70;99.90;;;5.68;100.00;-19920.16;5009565;28;20237;-62
2022/01/25 09:23:26;;;;;;;21.10;14.60;;;4.70;99.90;;;5.54;100.00;-19915.38;5010342;28;20211;-61
2022/01/25 09:25:56;;;;;;;21.87;15.07;;;4.70;99.90;;;5.51;100.00;-19914.34;5009558;28;20319;-60
2022/01/25 09:28:24;;;;;;;22.03;14.40;;;4.60;99.90;;;5.68;100.00;-19920.16;5009711;28;20250;-60
2022/01/25 09:30:52;;;;;;;20.83;14.00;;;4.70;99.90;;;5.46;100.00;-19912.66;5009395;28;20726;-61
2022/01/25 09:33:22;;;;;;;23.73;15.87;;;4.60;99.90;;;5.22;100.00;-19904.44;5009562;28;20222;-61
2022/01/25 09:35:50;;;;;;;23.77;16.63;;;4.50;99.90;;;5.27;100.00;-19906.31;5009906;28;20257;-63
2022/01/25 09:38:19;;;;;;;23.83;16.67;;;4.50;99.90;;;5.39;100.00;-19910.25;5009248;28;20227;-63
2022/01/25 09:40:50;;;;;;;22.33;15.07;;;4.50;99.90;;;5.48;100.00;-19913.50;5008857;28;20230;-64
2022/01/25 09:43:20;;;;;;;23.80;16.57;;;4.60;99.90;;;5.41;100.00;-19910.94;5009268;28;20313;-63
2022/01/25 09:45:49;;;;;;;25.60;16.73;;;4.50;99.90;;;5.59;100.00;-19917.09;5009309;28;20807;-63
2022/01/25 09:48:18;;;;;;;25.00;17.33;;;4.60;99.90;;;5.40;100.00;-19910.59;5008776;28;20261;-62
2022/01/25 09:50:47;;;;;;;24.63;16.93;;;4.60;99.90;;;5.58;100.00;-19916.75;5009209;28;20313;-62
2022/01/25 09:53:15;;;;;;;24.57;17.00;;;4.50;99.90;;;5.64;100.00;-19918.97;5008685;28;20332;-51
2022/01/25 09:55:45;;;;;;;25.90;16.37;;;4.60;99.90;;;5.36;100.00;-19909.41;5008969;28;20237;-56
2022/01/25 09:58:15;;;;;;;24.27;16.13;;;4.60;99.90;;;5.33;100.00;-19908.19;5008713;28;20312;-58
2022/01/25 10:00:48;;;;;;;24.13;16.80;;;4.60;99.90;;;5.51;100.00;-19914.53;5008824;28;20323;-60
2022/01/25 10:03:24;;;;;;;25.37;17.37;;;4.60;99.90;;;5.38;100.00;-19910.06;5008816;28;20313;-58
2022/01/25 10:05:56;;;;;;;24.57;16.30;;;4.60;99.90;;;5.63;100.00;-19918.47;5009695;28;20197;-60
2022/01/25 10:08:28;;;;;;;23.83;16.80;;;4.60;99.90;;;5.58;100.00;-19916.75;5009213;28;20600;-62
2022/01/25 10:10:59;;;;;;;24.20;17.00;;;4.70;99.90;;;5.54;100.00;-19915.38;5012639;28;20225;-62
2022/01/25 10:13:31;;;;;;;22.57;15.83;;;4.60;99.90;;;5.45;100.00;-19912.31;5028197;28;20731;-63
2022/01/25 10:16:02;;;;;;;23.93;16.27;;;4.60;99.90;;;5.35;100.00;-19909.06;5021517;28;20246;-61
2022/01/25 10:18:44;;;;;;;25.03;17.77;;;4.60;99.90;;;5.50;100.00;-19914.00;5011818;28;20257;-61
2022/01/25 10:21:22;;;;;;;25.20;17.77;;;4.60;99.90;;;5.52;100.00;-19914.88;5012030;28;20183;-62
2022/01/25 10:24:08;;;;;;;25.23;17.50;;;4.60;99.90;;;5.73;100.00;-19922.03;5012268;28;20229;-61
2022/01/25 10:26:40;;;;;;;28.70;17.37;;;4.70;99.90;;;5.64;100.00;-19918.97;5010337;28;20258;-60
2022/01/25 10:29:16;;;;;;;28.90;17.93;;;4.70;99.90;;;5.39;100.00;-19910.44;5010474;28;20636;-61
2022/01/25 10:31:49;;;;;;;27.73;18.63;;;4.60;99.90;;;5.50;100.00;-19914.19;5010981;28;20252;-61
2022/01/25 10:34:24;;;;;;;28.67;17.57;;;4.60;99.90;;;5.32;100.00;-19908.03;5010519;28;20300;-61
2022/01/25 10:36:54;;;;;;;29.90;17.33;;;4.50;99.90;;;5.37;100.00;-19909.56;5010938;28;20262;-61
2022/01/25 10:39:27;;;;;;;29.93;18.80;;;4.50;99.90;;;5.50;100.00;-19914.00;5010616;28;20229;-62
2022/01/25 10:42:04;;;;;;;28.70;17.87;;;4.50;99.90;;;5.39;100.00;-19910.25;5010620;28;20305;-61
2022/01/25 10:44:51;;;;;;;28.63;17.43;;;4.50;99.90;;;5.33;100.00;-19908.19;5011373;28;20186;-61
2022/01/25 10:47:37;;;;;;;30.10;17.33;;;4.50;99.90;;;5.43;100.00;-19911.63;5010192;28;20273;-61
2022/01/25 10:50:15;;;;;;;28.20;17.37;;;4.50;99.90;;;5.43;100.00;-19911.78;5010500;28;20694;-61
2022/01/25 10:52:44;;;;;;;28.60;17.37;;;4.50;99.90;;;5.57;100.00;-19916.41;5010315;28;20284;-62
2022/01/25 10:55:14;;;;;;;31.23;17.30;;;4.60;99.90;;;5.50;100.00;-19914.00;5010021;28;20257;-61
2022/01/25 10:57:43;;;;;;;27.30;16.20;;;4.60;99.90;;;5.54;100.00;-19915.56;5010082;28;20714;-63
2022/01/25 11:00:33;;;;;;;26.00;15.93;;;4.60;99.90;;;5.33;100.00;-19908.38;5010878;28;20223;-61
2022/01/25 11:03:04;;;;;;;27.70;16.70;;;4.50;99.90;;;5.35;100.00;-19909.06;5010832;28;20195;-62
2022/01/25 11:05:38;;;;;;;26.67;16.97;;;4.60;99.90;;;5.30;100.00;-19907.34;5011105;28;20194;-61
2022/01/25 11:08:14;;;;;;;29.73;16.30;;;4.50;99.90;;;5.34;100.00;-19908.53;5009301;28;20679;-61
2022/01/25 11:10:47;;;;;;;28.93;17.57;;;4.50;99.90;;;5.37;100.00;-19909.56;5025165;28;20263;-62
2022/01/25 11:13:35;;;;;;;29.03;17.33;;;4.50;99.90;;;5.62;100.00;-19918.13;5029652;28;20225;-60
2022/01/25 11:16:08;;;;;;;28.63;16.43;;;4.60;99.90;;;5.40;100.00;-19910.75;5014105;28;20245;-61
2022/01/25 11:18:38;;;;;;;26.80;15.20;;;4.50;99.90;;;5.36;100.00;-19909.41;5014216;28;20321;-61
2022/01/25 11:21:09;;;;;;;28.03;16.80;;;4.50;99.90;;;5.32;100.00;-19907.84;5028078;28;20635;-61
2022/01/25 11:23:42;;;;;;;27.30;16.07;;;4.50;99.90;;;5.21;100.00;-19904.28;5030202;28;20202;-62
2022/01/25 11:26:14;;;;;;;28.63;17.27;;;4.50;99.90;;;5.25;100.00;-19905.63;5029988;28;20222;-63
2022/01/25 11:28:45;;;;;;;27.47;16.30;;;4.50;99.90;;;5.48;100.00;-19913.50;5030478;28;20230;-61
2022/01/25 11:31:19;;;;;;;30.10;17.33;;;4.50;99.90;;;5.37;100.00;-19909.56;5030428;28;20541;-61
2022/01/25 11:33:50;;;;;;;26.37;14.50;;;4.50;99.90;;;5.62;100.00;-19918.13;5030093;28;20233;-61
2022/01/25 11:36:19;;;;;;;27.13;15.83;;;4.50;99.90;;;5.43;100.00;-19911.78;5030234;28;20228;-61
2022/01/25 11:38:50;;;;;;;25.80;14.97;;;4.60;99.90;;;5.30;100.00;-19907.34;5030563;28;20347;-62
2022/01/25 11:41:23;;;;;;;26.43;15.47;;;4.50;99.90;;;5.52;100.00;-19914.69;5030124;28;20229;-61